Time;durP1;ratioP1;P1;durP2;ratioP2;P2;SDS_P1;SDS_P2;PMS_P1;PMS_P2;Temp;Humidity;BMP_temperature;BMP_pressure;BME280_temperature;BME280_humidity;BME280_pressure;Samples;Min_cycle;Max_cycle;Signal;HPM_P1;HPM_P2
2024/02/07 00:01:58;;;;;;;28.98;8.95;;;12.40;99.90;;;11.86;100.00;101237.91;4168951;28;20022;-70
2024/02/07 00:04:03;;;;;;;23.13;8.23;;;12.40;99.90;;;11.86;100.00;101237.91;4185712;28;20025;-71
2024/02/07 00:06:04;;;;;;;26.40;8.88;;;12.40;99.90;;;11.83;100.00;101234.75;4169016;28;20040;-71
2024/02/07 00:08:05;;;;;;;24.08;7.65;;;12.50;99.90;;;11.84;100.00;101242.53;4170316;28;20025;-72
2024/02/07 00:10:07;;;;;;;28.42;8.25;;;12.50;99.90;;;11.89;100.00;101244.72;4170159;28;20508;-71
2024/02/07 00:12:08;;;;;;;30.83;8.35;;;12.40;99.90;;;11.91;100.00;101235.66;4170072;28;20018;-71
2024/02/07 00:14:09;;;;;;;27.88;9.00;;;12.50;99.90;;;11.91;100.00;101246.25;4168921;28;20043;-71
2024/02/07 00:16:10;;;;;;;32.55;8.80;;;12.50;99.90;;;11.87;100.00;101236.94;4168943;28;20056;-71
2024/02/07 00:18:11;;;;;;;22.27;7.75;;;12.50;99.90;;;11.86;100.00;101227.34;4170180;28;20025;-71
2024/02/07 00:20:12;;;;;;;19.52;9.15;;;12.50;99.90;;;11.85;100.00;101224.88;4168847;28;20014;-71
2024/02/07 00:22:13;;;;;;;26.52;8.50;;;12.50;99.90;;;11.87;100.00;101231.66;4170176;28;20060;-71
2024/02/07 00:24:14;;;;;;;27.52;10.18;;;12.50;99.90;;;11.84;100.00;101221.38;4168847;28;20037;-71
2024/02/07 00:26:15;;;;;;;30.88;10.48;;;12.50;99.90;;;11.88;100.00;101228.03;4168732;28;20034;-71
2024/02/07 00:28:16;;;;;;;24.42;9.02;;;12.50;99.90;;;11.85;100.00;101220.41;4170079;28;20091;-71
2024/02/07 00:30:17;;;;;;;23.25;8.10;;;12.50;99.90;;;11.95;100.00;101225.59;4170034;28;20111;-71
2024/02/07 00:32:18;;;;;;;26.58;8.95;;;12.50;99.90;;;11.95;100.00;101213.22;4169823;28;20028;-71
2024/02/07 00:34:19;;;;;;;30.48;9.27;;;12.50;99.90;;;11.88;100.00;101214.00;4168456;28;20021;-71
2024/02/07 00:36:20;;;;;;;29.92;9.40;;;12.50;99.90;;;11.86;100.00;101214.13;4170036;28;20072;-71
2024/02/07 00:38:21;;;;;;;24.60;9.35;;;12.50;99.90;;;11.87;100.00;101217.59;4169911;28;20026;-71
2024/02/07 00:40:21;;;;;;;28.35;9.75;;;12.50;99.90;;;11.88;100.00;101217.47;4169813;28;20370;-71
2024/02/07 00:42:22;;;;;;;28.35;9.20;;;12.50;99.90;;;11.83;100.00;101211.78;4169603;28;20060;-71
2024/02/07 00:44:23;;;;;;;26.88;9.23;;;12.40;99.90;;;11.84;100.00;101197.59;4169382;28;20060;-71
2024/02/07 00:46:24;;;;;;;28.63;9.55;;;12.50;99.90;;;11.85;100.00;101215.13;4169653;28;20083;-71
2024/02/07 00:48:25;;;;;;;30.17;11.02;;;12.50;99.90;;;11.82;100.00;101210.16;4169060;28;20108;-71
2024/02/07 00:50:26;;;;;;;27.77;9.23;;;12.50;99.90;;;11.83;100.00;101209.13;4169521;28;20056;-71
2024/02/07 00:52:27;;;;;;;24.30;9.02;;;12.50;99.90;;;11.84;100.00;101197.59;4168353;28;20025;-71
2024/02/07 00:54:28;;;;;;;30.70;10.15;;;12.50;99.90;;;11.91;100.00;101198.66;4169628;28;20401;-71
2024/02/07 00:56:29;;;;;;;29.80;10.82;;;12.50;99.90;;;11.91;100.00;101198.66;4169519;28;20029;-71
2024/02/07 00:58:30;;;;;;;29.35;9.40;;;12.50;99.90;;;11.91;100.00;101196.00;4168318;28;20034;-71
2024/02/07 01:00:31;;;;;;;28.33;9.55;;;12.50;99.90;;;11.89;100.00;101203.25;4168365;28;20025;-70
2024/02/07 01:02:31;;;;;;;33.85;8.98;;;12.50;99.90;;;11.88;100.00;101187.56;4169355;28;20029;-71
2024/02/07 01:04:32;;;;;;;26.48;9.00;;;12.50;99.90;;;11.89;100.00;101189.19;4168719;28;20555;-71
2024/02/07 01:06:33;;;;;;;20.10;8.93;;;12.50;99.90;;;11.84;100.00;101175.63;4169398;28;20452;-71
2024/02/07 01:08:34;;;;;;;23.83;8.68;;;12.50;99.90;;;11.91;100.00;101177.50;4169397;28;20022;-71
2024/02/07 01:10:36;;;;;;;33.40;9.48;;;12.50;99.90;;;11.89;100.00;101183.91;4169410;28;20030;-71
2024/02/07 01:12:37;;;;;;;26.42;9.15;;;12.50;99.90;;;11.91;100.00;101184.59;4169058;28;20037;-71
2024/02/07 01:14:38;;;;;;;25.58;8.25;;;12.50;99.90;;;11.88;100.00;101184.91;4169135;28;20413;-71
2024/02/07 01:16:39;;;;;;;25.75;8.80;;;12.50;99.90;;;11.85;100.00;101172.84;4167983;28;20021;-71
2024/02/07 01:18:40;;;;;;;24.85;7.35;;;12.50;99.90;;;11.87;100.00;101164.72;4169057;28;20040;-71
2024/02/07 01:20:41;;;;;;;32.65;9.77;;;12.50;99.90;;;11.87;100.00;101175.31;4169197;28;20025;-71
2024/02/07 01:22:42;;;;;;;27.58;9.00;;;12.50;99.90;;;11.92;100.00;101173.84;4168124;28;20393;-72
2024/02/07 01:24:43;;;;;;;37.53;9.40;;;12.50;99.90;;;11.92;100.00;101173.03;4167751;28;20097;-71
2024/02/07 01:26:44;;;;;;;23.50;8.05;;;12.50;99.90;;;11.88;100.00;101167.25;4169260;28;20124;-71
2024/02/07 01:28:45;;;;;;;24.88;9.35;;;12.40;99.90;;;11.87;100.00;101165.56;4169065;28;20030;-71
2024/02/07 01:30:46;;;;;;;25.35;8.65;;;12.40;99.90;;;11.83;100.00;101158.91;4168950;28;20644;-71
2024/02/07 01:32:47;;;;;;;24.85;8.30;;;12.40;99.90;;;11.85;100.00;101166.72;4168862;28;20033;-71
2024/02/07 01:34:48;;;;;;;29.95;9.27;;;12.40;99.90;;;11.83;100.00;101158.91;4167604;28;20039;-71
2024/02/07 01:36:48;;;;;;;20.80;7.75;;;12.40;99.90;;;11.82;100.00;101157.28;4168971;28;20025;-71
2024/02/07 01:38:50;;;;;;;28.48;9.65;;;12.40;99.90;;;11.83;100.00;101156.28;4168904;28;20064;-71
2024/02/07 01:40:51;;;;;;;25.17;8.80;;;12.40;99.90;;;11.85;100.00;101156.13;4167576;28;20028;-71
2024/02/07 01:42:52;;;;;;;25.27;9.85;;;12.40;99.90;;;11.85;100.00;101149.03;4168989;28;20061;-71
2024/02/07 01:45:33;;;;;;;26.10;7.50;;;12.40;99.90;;;11.75;100.00;101136.88;4168498;28;20378;-71
2024/02/07 01:47:33;;;;;;;19.98;8.43;;;12.40;99.90;;;11.78;100.00;101137.41;4154693;28;20091;-71
2024/02/07 01:49:34;;;;;;;25.73;9.73;;;12.40;99.90;;;11.77;100.00;101146.31;4167548;28;20485;-71
2024/02/07 01:51:35;;;;;;;23.83;9.80;;;12.40;99.90;;;11.74;100.00;101124.69;4168716;28;20033;-71
2024/02/07 01:53:38;;;;;;;23.70;7.93;;;12.40;99.90;;;11.75;100.00;101128.97;4168996;28;20503;-71
2024/02/07 01:55:41;;;;;;;25.63;9.07;;;12.30;99.90;;;11.68;100.00;101134.81;4167720;28;20045;-71
2024/02/07 01:57:43;;;;;;;29.35;8.63;;;12.30;99.90;;;11.70;100.00;101115.38;4168718;28;20151;-71
2024/02/07 01:59:44;;;;;;;21.92;8.00;;;12.30;99.90;;;11.72;100.00;101121.34;4168432;28;20022;-71
2024/02/07 02:01:45;;;;;;;30.55;8.50;;;12.40;99.90;;;11.70;100.00;101131.25;4167083;28;20048;-71
2024/02/07 02:03:46;;;;;;;27.52;8.00;;;12.30;99.90;;;11.68;100.00;101118.97;4168600;28;20033;-71
2024/02/07 02:05:47;;;;;;;30.15;8.73;;;12.30;99.90;;;11.71;100.00;101117.84;4168690;28;20535;-71
2024/02/07 02:07:49;;;;;;;28.45;8.75;;;12.30;99.90;;;11.76;100.00;101099.75;4168623;28;20029;-71
2024/02/07 02:09:50;;;;;;;21.92;8.18;;;12.30;99.90;;;11.74;100.00;101122.84;4167507;28;20425;-71
2024/02/07 02:11:52;;;;;;;29.55;8.30;;;12.30;99.90;;;11.79;100.00;101115.31;4168654;28;20033;-71
2024/02/07 02:13:54;;;;;;;24.42;9.35;;;12.30;99.90;;;11.72;100.00;101103.69;4167345;28;20424;-71
2024/02/07 02:15:55;;;;;;;26.48;9.07;;;12.30;99.90;;;11.68;100.00;101112.84;4167278;28;20021;-70
2024/02/07 02:17:56;;;;;;;31.33;8.73;;;12.30;99.90;;;11.65;100.00;101111.34;4168636;28;20525;-71
2024/02/07 02:19:57;;;;;;;27.08;9.27;;;12.30;99.90;;;11.57;100.00;101099.91;4168463;28;20029;-71
2024/02/07 02:21:58;;;;;;;36.10;9.35;;;12.30;99.90;;;11.64;100.00;101104.44;4167317;28;20036;-71
2024/02/07 02:24:25;;;;;;;27.50;8.50;;;12.20;99.90;;;11.54;100.00;101095.75;4168528;28;20489;-71
2024/02/07 02:26:43;;;;;;;29.70;8.32;;;12.20;99.90;;;11.59;100.00;101095.28;4167511;28;20067;-71
2024/02/07 02:29:04;;;;;;;29.73;9.57;;;12.20;99.90;;;11.50;100.00;101088.28;4167441;28;20030;-71
2024/02/07 02:31:11;;;;;;;31.75;8.00;;;12.20;99.90;;;11.51;100.00;101096.06;4167178;28;20048;-71
2024/02/07 02:33:13;;;;;;;23.42;8.32;;;12.10;99.90;;;11.52;100.00;101102.19;4168472;28;20025;-71
2024/02/07 02:35:17;;;;;;;26.95;8.45;;;12.10;99.90;;;11.44;100.00;101095.00;4167062;28;20022;-71
2024/02/07 02:37:21;;;;;;;23.15;8.38;;;12.10;99.90;;;11.42;100.00;101081.13;4167248;28;20029;-71
2024/02/07 02:39:27;;;;;;;;;;;12.10;99.90;;;11.38;100.00;101092.97;4168936;28;20022;-71
2024/02/07 02:41:28;;;;;;;19.60;7.90;;;12.10;99.90;;;11.44;100.00;101073.06;4167249;28;19959;-71
2024/02/07 02:43:29;;;;;;;25.13;8.27;;;12.10;99.90;;;11.46;100.00;101073.72;4168346;28;20029;-71
2024/02/07 02:45:30;;;;;;;27.00;9.43;;;12.10;99.90;;;11.46;100.00;101068.44;4166941;28;20026;-71
2024/02/07 02:47:31;;;;;;;23.83;8.57;;;12.10;99.90;;;11.53;100.00;101056.25;4166678;28;20087;-71
2024/02/07 02:49:32;;;;;;;24.92;8.88;;;12.10;99.90;;;11.50;100.00;101070.63;4168261;28;20040;-71
2024/02/07 02:51:33;;;;;;;26.10;8.55;;;12.10;99.90;;;11.49;100.00;101062.84;4168320;28;20034;-71
2024/02/07 02:53:34;;;;;;;31.17;8.48;;;12.10;99.90;;;11.45;100.00;101066.78;4168145;28;20025;-71
2024/02/07 02:55:35;;;;;;;25.63;9.05;;;12.10;99.90;;;11.49;100.00;101060.22;4168334;28;20026;-71
2024/02/07 02:57:36;;;;;;;23.45;8.32;;;12.10;99.90;;;11.52;100.00;101063.38;4168417;28;20025;-71
2024/02/07 02:59:37;;;;;;;25.58;9.13;;;12.10;99.90;;;11.50;100.00;101056.56;4168281;28;20043;-71
2024/02/07 03:01:39;;;;;;;27.40;9.23;;;12.10;99.90;;;11.51;100.00;101039.75;4168251;28;20021;-71
2024/02/07 03:03:44;;;;;;;23.20;8.75;;;12.10;99.90;;;11.53;100.00;101045.69;4168092;28;20129;-71
2024/02/07 03:07:54;;;;;;;24.58;8.38;;;12.10;99.90;;;11.55;100.00;101035.81;4166590;28;20048;-71
2024/02/07 03:09:56;;;;;;;20.23;8.32;;;12.10;99.90;;;11.50;100.00;101038.06;4167954;28;20034;-71
2024/02/07 03:11:57;;;;;;;25.60;8.38;;;12.10;99.90;;;11.56;100.00;101029.53;4169417;28;20064;-71
2024/02/07 03:13:57;;;;;;;26.02;7.88;;;12.10;99.90;;;11.58;100.00;101024.94;4171043;28;20042;-71
2024/02/07 03:15:58;;;;;;;31.85;8.80;;;12.10;99.90;;;11.56;100.00;101018.97;4169955;28;20032;-71
2024/02/07 03:17:59;;;;;;;24.30;7.50;;;12.10;99.90;;;11.58;100.00;101024.94;4170998;28;20029;-71
2024/02/07 03:20:01;;;;;;;25.60;8.18;;;12.10;99.90;;;11.53;100.00;101027.19;4170709;28;20025;-71
2024/02/07 03:22:02;;;;;;;29.88;8.95;;;12.10;99.90;;;11.52;100.00;101013.19;4169922;28;20025;-71
2024/02/07 03:24:03;;;;;;;23.90;7.85;;;12.10;99.90;;;11.54;100.00;101016.50;4169643;28;20531;-71
2024/02/07 03:26:04;;;;;;;22.25;8.77;;;12.10;99.90;;;11.57;100.00;101007.41;4170869;28;20041;-71
2024/02/07 03:28:05;;;;;;;27.88;9.05;;;12.10;99.90;;;11.56;100.00;100997.81;4171049;28;20028;-71
2024/02/07 03:30:07;;;;;;;25.55;8.85;;;12.10;99.90;;;11.55;100.00;101012.03;4170926;28;20029;-71
2024/02/07 03:32:08;;;;;;;32.40;8.18;;;12.10;99.90;;;11.59;100.00;101003.63;4170771;28;20022;-71
2024/02/07 03:34:09;;;;;;;29.27;9.30;;;12.20;99.90;;;11.60;100.00;101009.75;4169405;28;20032;-71
2024/02/07 03:36:10;;;;;;;24.95;8.43;;;12.20;99.90;;;11.61;100.00;100998.22;4170975;28;20017;-71
2024/02/07 03:38:12;;;;;;;31.77;9.30;;;12.20;99.90;;;11.62;100.00;100991.91;4169799;28;20030;-71
2024/02/07 03:40:14;;;;;;;28.17;8.77;;;12.20;99.90;;;11.61;100.00;100990.28;4170473;28;20028;-71
2024/02/07 03:42:15;;;;;;;24.00;7.57;;;12.20;99.90;;;11.60;100.00;100989.44;4169346;28;20037;-71
2024/02/07 03:44:16;;;;;;;17.38;8.00;;;12.20;99.90;;;11.57;100.00;100994.22;4169516;28;20029;-71
2024/02/07 03:46:16;;;;;;;22.77;8.10;;;12.20;99.90;;;11.63;100.00;100988.31;4170557;28;20033;-71
2024/02/07 03:48:17;;;;;;;28.38;8.90;;;12.10;99.90;;;11.56;100.00;100968.75;4170279;28;20405;-71
2024/02/07 03:50:25;;;;;;;28.25;9.88;;;12.10;99.90;;;11.52;100.00;100978.00;4170719;28;20041;-71
2024/02/07 03:52:25;;;;;;;20.95;7.63;;;12.10;99.90;;;11.51;100.00;100978.97;4169130;28;20034;-71
2024/02/07 03:54:26;;;;;;;29.23;8.05;;;12.10;99.90;;;11.48;100.00;100968.72;4170643;28;20028;-71
2024/02/07 03:56:28;;;;;;;27.75;8.30;;;12.10;99.90;;;11.50;100.00;100966.75;4170527;28;20041;-71
2024/02/07 03:58:30;;;;;;;23.98;8.57;;;12.10;99.90;;;11.49;100.00;100963.31;4170349;28;20053;-71
2024/02/07 04:00:31;;;;;;;27.77;8.63;;;12.10;99.90;;;11.49;100.00;100957.19;4170539;28;20119;-71
2024/02/07 04:02:32;;;;;;;26.42;8.00;;;12.00;99.90;;;11.46;100.00;100944.28;4170389;28;20025;-71
2024/02/07 04:04:33;;;;;;;22.38;8.10;;;12.00;99.90;;;11.50;100.00;100950.91;4169071;28;20029;-71
2024/02/07 04:06:34;;;;;;;22.50;8.48;;;12.00;99.90;;;11.50;100.00;100925.31;4170241;28;20091;-71
2024/02/07 04:08:35;;;;;;;25.90;7.85;;;12.10;99.90;;;11.54;100.00;100941.69;4170471;28;20040;-71
2024/02/07 04:10:41;;;;;;;25.88;8.55;;;12.10;99.90;;;11.47;100.00;100922.16;4170163;28;20033;-71
2024/02/07 05:16:56;;;;;;;21.85;8.95;;;12.40;99.90;;;11.78;100.00;100837.94;4169464;28;20026;-71
2024/02/07 05:18:57;;;;;;;25.95;9.98;;;12.40;99.90;;;11.76;100.00;100835.47;4169072;28;20456;-71
2024/02/07 05:20:58;;;;;;;26.67;8.90;;;12.30;99.90;;;11.76;100.00;100829.34;4169163;28;20029;-71
2024/02/07 05:22:59;;;;;;;21.00;9.30;;;12.30;99.90;;;11.76;100.00;100830.19;4168966;28;20021;-71
2024/02/07 05:25:02;;;;;;;32.85;9.48;;;12.30;99.90;;;11.75;100.00;100828.50;4169146;28;20072;-71
2024/02/07 05:27:06;;;;;;;24.17;9.75;;;12.30;99.90;;;11.79;100.00;100826.38;4169186;28;20033;-71
2024/02/07 05:29:07;;;;;;;24.83;8.48;;;12.30;99.90;;;11.76;100.00;100816.97;4168024;28;20021;-71
2024/02/07 05:31:07;;;;;;;30.08;9.73;;;12.30;99.90;;;11.77;100.00;100808.03;4167432;28;20075;-71
2024/02/07 05:33:09;;;;;;;30.65;10.10;;;12.30;99.90;;;11.74;100.00;100808.34;4168707;28;20059;-71
2024/02/07 05:35:10;;;;;;;23.27;9.85;;;12.30;99.90;;;11.71;100.00;100805.22;4167076;28;20080;-71
2024/02/07 05:37:11;;;;;;;26.58;9.90;;;12.30;99.90;;;11.66;100.00;100808.31;4167674;28;20018;-71
2024/02/07 05:39:12;;;;;;;26.67;10.07;;;12.20;99.90;;;11.73;100.00;100805.88;4168749;28;20032;-71
2024/02/07 05:41:12;;;;;;;31.17;10.77;;;12.20;99.90;;;11.65;100.00;100796.06;4168916;28;20021;-71
2024/02/07 05:43:13;;;;;;;27.73;9.43;;;12.20;99.90;;;11.66;100.00;100805.66;4167776;28;20037;-71
2024/02/07 05:45:14;;;;;;;21.40;10.55;;;12.20;99.90;;;11.66;100.00;100785.34;4168932;28;20027;-71
2024/02/07 05:47:16;;;;;;;25.25;8.60;;;12.20;99.90;;;11.64;100.00;100790.00;4168538;28;20037;-71
2024/02/07 05:49:17;;;;;;;24.17;10.43;;;12.20;99.90;;;11.66;100.00;100782.72;4168784;28;20041;-71
2024/02/07 05:51:22;;;;;;;23.55;9.63;;;12.20;99.90;;;11.65;100.00;100774.94;4167855;28;20033;-71
2024/02/07 05:53:23;;;;;;;29.48;10.02;;;12.20;99.90;;;11.65;100.00;100772.28;4168829;28;20511;-71
2024/02/07 05:55:24;;;;;;;24.50;10.43;;;12.20;99.90;;;11.64;100.00;100775.94;4168661;28;20034;-71
2024/02/07 05:57:25;;;;;;;27.15;10.30;;;12.20;99.90;;;11.66;100.00;100768.66;4168772;28;20026;-71
2024/02/07 05:59:26;;;;;;;26.90;9.07;;;12.20;99.90;;;11.62;100.00;100764.69;4168875;28;20075;-71
2024/02/07 06:01:27;;;;;;;21.75;9.98;;;12.20;99.90;;;11.60;100.00;100756.94;4168652;28;20025;-71
2024/02/07 06:03:29;;;;;;;26.23;11.38;;;12.20;99.90;;;11.57;100.00;100751.97;4168544;28;20026;-71
2024/02/07 06:05:29;;;;;;;31.13;10.35;;;12.10;99.90;;;11.64;100.00;100768.03;4168933;28;20078;-71
2024/02/07 06:07:31;;;;;;;24.60;10.27;;;12.10;99.90;;;11.67;100.00;100759.78;4167327;28;20034;-71
2024/02/07 06:09:32;;;;;;;32.85;10.25;;;12.20;99.90;;;11.60;100.00;100748.19;4168777;28;20029;-71
2024/02/07 06:11:34;;;;;;;22.02;9.15;;;12.20;99.90;;;11.60;100.00;100750.81;4168434;28;20417;-71
2024/02/07 06:13:39;;;;;;;25.33;9.57;;;12.10;99.90;;;11.60;100.00;100745.53;4167532;28;20018;-71
2024/02/07 06:15:40;;;;;;;25.20;9.93;;;12.20;99.90;;;11.61;100.00;100749.84;4168909;28;20108;-71
2024/02/07 06:17:40;;;;;;;23.98;10.43;;;12.20;99.90;;;11.58;100.00;100737.78;4168760;28;20397;-71
2024/02/07 06:19:41;;;;;;;25.30;10.35;;;12.10;99.90;;;11.57;100.00;100741.41;4168421;28;20026;-71
2024/02/07 06:21:42;;;;;;;23.55;10.48;;;12.10;99.90;;;11.55;100.00;100735.47;4150930;28;20081;-71
2024/02/07 06:23:43;;;;;;;26.27;10.23;;;12.10;99.90;;;11.50;100.00;100726.34;4168658;28;20037;-71
2024/02/07 06:25:44;;;;;;;31.95;9.77;;;12.10;99.90;;;11.54;100.00;100730.34;4167247;28;20021;-71
2024/02/07 06:27:45;;;;;;;26.50;10.45;;;12.10;99.90;;;11.53;100.00;100720.75;4167111;28;20068;-71
2024/02/07 06:29:45;;;;;;;30.95;10.77;;;12.10;99.90;;;11.58;100.00;100713.19;4168661;28;20511;-71
2024/02/07 06:31:46;;;;;;;29.17;10.15;;;12.10;99.90;;;11.55;100.00;100716.16;4167037;28;20029;-71
2024/02/07 06:33:47;;;;;;;24.40;9.80;;;12.10;99.90;;;11.52;100.00;100705.91;4167036;28;20030;-71
2024/02/07 06:35:48;;;;;;;37.25;11.43;;;12.10;99.90;;;11.48;100.00;100689.56;4168360;28;20033;-71
2024/02/07 06:37:49;;;;;;;31.27;12.32;;;12.10;99.90;;;11.54;100.00;100688.91;4167263;28;20397;-71
2024/02/07 06:39:50;;;;;;;31.58;10.80;;;12.10;99.90;;;11.52;100.00;100695.34;4168444;28;20028;-71
2024/02/07 06:41:50;;;;;;;32.15;11.07;;;12.10;99.90;;;11.52;100.00;100700.63;4168300;28;20025;-71
2024/02/07 06:43:51;;;;;;;32.28;11.25;;;12.00;99.90;;;11.49;100.00;100693.03;4168410;28;20026;-71
2024/02/07 06:45:53;;;;;;;27.67;11.23;;;12.10;99.90;;;11.48;100.00;100683.44;4168279;28;20026;-71
2024/02/07 06:47:54;;;;;;;29.83;11.10;;;12.00;99.90;;;11.46;100.00;100678.34;4169586;28;20045;-71
2024/02/07 06:49:55;;;;;;;24.15;9.95;;;12.00;99.90;;;11.46;100.00;100690.72;4171286;28;20370;-71
2024/02/07 06:51:56;;;;;;;28.65;10.75;;;12.00;99.90;;;11.43;100.00;100677.84;4171199;28;20060;-71
2024/02/07 06:53:57;;;;;;;29.80;10.20;;;12.00;99.90;;;11.44;100.00;100684.78;4171130;28;20401;-71
2024/02/07 06:55:57;;;;;;;26.45;9.82;;;12.00;99.90;;;11.37;100.00;100662.63;4171533;28;20453;-71
2024/02/07 06:57:59;;;;;;;28.83;10.40;;;12.00;99.90;;;11.44;100.00;100666.28;4171535;28;20029;-71
2024/02/07 06:59:59;;;;;;;21.13;8.82;;;12.00;99.90;;;11.39;100.00;100668.56;4171308;28;20132;-71
2024/02/07 07:02:00;;;;;;;21.88;9.52;;;12.00;99.90;;;11.40;100.00;100670.22;4171303;28;20496;-71
2024/02/07 07:04:01;;;;;;;19.40;9.68;;;12.00;99.90;;;11.37;100.00;100674.03;4171119;28;20029;-71
2024/02/07 07:06:02;;;;;;;20.48;9.15;;;11.90;99.90;;;11.40;100.00;100657.03;4153615;28;20065;-71
2024/02/07 07:08:03;;;;;;;25.60;9.18;;;11.90;99.90;;;11.36;100.00;100653.06;4171454;28;20493;-71
2024/02/07 07:10:05;;;;;;;30.42;9.88;;;11.90;99.90;;;11.34;100.00;100649.75;4170105;28;20029;-71
2024/02/07 07:12:06;;;;;;;20.88;9.48;;;11.90;99.90;;;11.31;100.00;100655.34;4165497;28;20025;-71
2024/02/07 07:14:07;;;;;;;19.73;8.90;;;11.90;99.90;;;11.36;100.00;100653.06;4171332;28;20038;-71
2024/02/07 07:16:08;;;;;;;19.85;9.40;;;11.90;99.90;;;11.31;100.00;100664.13;4171123;28;20033;-71
2024/02/07 07:18:09;;;;;;;19.13;8.90;;;11.90;99.90;;;11.35;100.00;100632.94;4169606;28;20064;-71
2024/02/07 07:20:10;;;;;;;14.32;8.65;;;11.90;99.90;;;11.39;100.00;100645.63;4170187;28;20068;-71
2024/02/07 07:22:11;;;;;;;23.42;9.38;;;11.90;99.90;;;11.33;100.00;100640.16;4171007;28;20032;-71
2024/02/07 07:24:12;;;;;;;15.27;7.97;;;11.90;99.90;;;11.32;100.00;100639.34;4171074;28;20029;-71
2024/02/07 07:26:13;;;;;;;16.00;8.38;;;11.90;99.90;;;11.36;100.00;100655.69;4170394;28;20034;-71
2024/02/07 07:28:14;;;;;;;26.95;8.95;;;11.90;99.90;;;11.31;100.00;100640.34;4171141;28;20033;-71
2024/02/07 07:30:15;;;;;;;21.10;8.40;;;11.90;99.90;;;11.36;100.00;100655.69;4169959;28;20095;-71
2024/02/07 07:32:16;;;;;;;16.75;8.10;;;11.90;99.90;;;11.34;100.00;100644.47;4170745;28;20022;-71
2024/02/07 07:34:16;;;;;;;20.65;8.25;;;11.90;99.90;;;11.33;100.00;100645.44;4169066;28;20033;-71
2024/02/07 07:36:18;;;;;;;23.20;8.27;;;11.90;99.90;;;11.33;100.00;100638.34;4170643;28;20022;-71
2024/02/07 07:38:19;;;;;;;19.60;7.85;;;11.90;99.90;;;11.30;100.00;100627.28;4170892;28;20584;-71
2024/02/07 07:40:19;;;;;;;19.50;7.03;;;11.90;99.90;;;11.34;100.00;100636.56;4170773;28;20025;-71
2024/02/07 07:42:20;;;;;;;15.70;8.13;;;11.90;99.90;;;11.33;100.00;100624.31;4170555;28;20485;-71
2024/02/07 07:44:21;;;;;;;17.35;7.75;;;11.90;99.90;;;11.33;100.00;100626.97;4170766;28;20400;-71
2024/02/07 07:46:22;;;;;;;18.50;7.63;;;11.90;99.90;;;11.38;100.00;100622.84;4170670;28;20034;-71
2024/02/07 07:48:23;;;;;;;11.50;7.18;;;11.90;99.90;;;11.41;100.00;100630.44;4170335;28;20054;-71
2024/02/07 07:50:24;;;;;;;14.70;6.45;;;11.90;99.90;;;11.42;100.00;100620.69;4170725;28;20105;-71
2024/02/07 07:52:25;;;;;;;14.40;6.38;;;11.90;99.90;;;11.41;100.00;100617.22;4169381;28;20033;-71
2024/02/07 07:54:26;;;;;;;16.52;6.72;;;11.90;99.90;;;11.42;100.00;100626.81;4169643;28;20026;-71
2024/02/07 07:56:31;;;;;;;12.93;6.55;;;11.90;99.90;;;11.45;100.00;100628.28;4170573;28;20022;-71
2024/02/07 07:58:37;;;;;;;15.02;5.63;;;12.00;99.90;;;11.46;100.00;100628.16;4169475;28;20025;-71
2024/02/07 08:00:38;;;;;;;11.27;6.75;;;12.00;99.90;;;11.47;100.00;100628.94;4170557;28;20028;-71
2024/02/07 08:02:39;;;;;;;12.50;6.38;;;12.00;99.90;;;11.48;100.00;100599.75;4170425;28;20021;-71
2024/02/07 08:04:40;;;;;;;12.80;5.55;;;12.00;99.90;;;11.48;100.00;100630.59;4169149;28;20068;-71
2024/02/07 08:06:41;;;;;;;10.77;4.47;;;12.00;99.90;;;11.53;100.00;100620.38;4170292;28;20029;-71
2024/02/07 08:08:42;;;;;;;9.38;4.28;;;12.00;99.90;;;11.51;100.00;100625.84;4170524;28;20036;-71
2024/02/07 08:10:46;;;;;;;8.75;5.65;;;12.00;99.90;;;11.51;100.00;100622.34;4170418;28;20033;-71
2024/02/07 08:12:47;;;;;;;12.85;5.63;;;12.00;99.90;;;11.51;100.00;100619.72;4170299;28;20036;-71
2024/02/07 08:14:48;;;;;;;7.65;5.75;;;12.00;99.90;;;11.51;100.00;100615.25;4170030;28;20033;-71
2024/02/07 08:16:49;;;;;;;10.30;4.57;;;12.00;99.90;;;11.51;100.00;100615.25;4168924;28;20025;-71
2024/02/07 08:18:50;;;;;;;7.30;3.75;;;12.10;99.90;;;11.53;100.00;100615.91;4169802;28;20025;-71
2024/02/07 08:20:53;;;;;;;8.32;4.03;;;12.10;99.90;;;11.52;100.00;100593.16;4170232;28;20079;-71
2024/02/07 08:22:53;;;;;;;7.60;4.57;;;12.10;99.90;;;11.54;100.00;100603.53;4168962;28;20155;-71
2024/02/07 08:24:54;;;;;;;5.07;3.55;;;12.10;99.90;;;11.51;100.00;100596.78;4170213;28;20033;-71
2024/02/07 08:26:55;;;;;;;7.20;4.00;;;12.10;99.90;;;11.53;100.00;100592.13;4169011;28;20029;-71
2024/02/07 08:28:56;;;;;;;4.60;3.20;;;12.10;99.90;;;11.53;100.00;100575.47;4170049;28;20512;-71
2024/02/07 08:30:57;;;;;;;7.30;3.75;;;12.10;99.90;;;11.52;100.00;100579.94;4168870;28;20042;-71
2024/02/07 08:32:58;;;;;;;8.50;3.85;;;12.10;99.90;;;11.53;100.00;100583.38;4168482;28;20076;-71
2024/02/07 08:34:59;;;;;;;5.28;3.10;;;12.10;99.90;;;11.53;100.00;100588.66;4170071;28;20033;-71
2024/02/07 08:37:00;;;;;;;6.18;3.63;;;12.20;99.90;;;11.57;100.00;100590.00;4169920;28;20057;-71
2024/02/07 08:39:01;;;;;;;6.38;3.50;;;12.20;99.90;;;11.58;100.00;100579.28;4169855;28;20496;-71
2024/02/07 08:41:02;;;;;;;7.43;3.45;;;12.10;99.90;;;11.68;100.00;100584.38;4168778;28;20037;-71
2024/02/07 08:43:06;;;;;;;7.00;3.97;;;12.20;99.90;;;11.68;100.00;100576.44;4168520;28;20033;-71
2024/02/07 08:45:07;;;;;;;6.18;3.15;;;12.20;99.90;;;11.68;100.00;100589.66;4152616;28;20065;-71
2024/02/07 08:47:08;;;;;;;5.72;3.15;;;12.20;99.90;;;11.75;100.00;100582.75;4167802;28;20061;-71
2024/02/07 08:49:10;;;;;;;5.00;3.03;;;12.30;99.90;;;11.79;100.00;100576.16;4168170;28;20053;-71
2024/02/07 08:51:11;;;;;;;7.75;3.55;;;12.30;99.90;;;11.78;100.00;100566.56;4168732;28;20037;-71
2024/02/07 08:53:12;;;;;;;6.43;3.10;;;12.30;99.90;;;11.73;100.00;100571.53;4168343;28;20021;-70
2024/02/07 08:55:12;;;;;;;6.40;3.25;;;12.30;99.90;;;11.83;100.00;100555.47;4169238;28;20101;-71
2024/02/07 08:57:14;;;;;;;4.90;3.10;;;12.30;99.90;;;11.84;100.00;100568.53;4169738;28;20465;-71
2024/02/07 08:59:14;;;;;;;6.47;3.40;;;12.30;99.90;;;11.83;100.00;100563.41;4167792;28;20393;-71
2024/02/07 09:01:17;;;;;;;8.45;3.70;;;12.40;99.90;;;11.87;100.00;100570.00;4169447;28;20036;-71
2024/02/07 09:03:17;;;;;;;6.35;4.20;;;12.40;99.90;;;11.86;100.00;100571.81;4167862;28;20033;-71
2024/02/07 09:05:19;;;;;;;5.70;3.58;;;12.40;99.90;;;11.89;100.00;100568.84;4169548;28;20489;-71
2024/02/07 09:07:20;;;;;;;9.88;4.30;;;12.40;99.90;;;11.90;100.00;100557.28;4169289;28;20026;-71
2024/02/07 09:09:21;;;;;;;8.13;4.68;;;12.40;99.90;;;11.91;100.00;100561.59;4168036;28;20033;-71
2024/02/07 09:11:22;;;;;;;10.43;5.30;;;12.50;99.90;;;11.94;100.00;100563.91;4168181;28;20029;-71
2024/02/07 09:13:23;;;;;;;11.48;5.20;;;12.50;99.90;;;12.01;100.00;100564.84;4168998;28;20029;-71
2024/02/07 09:15:23;;;;;;;11.55;5.70;;;12.50;99.90;;;12.09;100.00;100554.28;4169358;28;20029;-71
2024/02/07 09:17:24;;;;;;;10.52;5.60;;;12.60;99.90;;;12.10;100.00;100557.72;4169636;28;20033;-71
2024/02/07 09:19:25;;;;;;;12.38;5.85;;;12.60;99.90;;;12.09;100.00;100556.09;4151430;28;20056;-71
2024/02/07 09:21:27;;;;;;;13.38;6.38;;;12.60;99.90;;;12.08;100.00;100560.53;4169119;28;20057;-71
2024/02/07 09:23:28;;;;;;;15.27;7.57;;;12.60;99.90;;;12.12;100.00;100551.28;4167943;28;20030;-71